Time;durP1;ratioP1;P1;durP2;ratioP2;P2;SDS_P1;SDS_P2;PMS_P1;PMS_P2;Temp;Humidity;BMP_temperature;BMP_pressure;BME280_temperature;BME280_humidity;BME280_pressure;Samples;Min_cycle;Max_cycle;Signal;HPM_P1;HPM_P2
2022/08/04 00:06:03;;;;;;;2.83;1.73;;;29.50;52.50;;;;;;10904309;32;20051;-71
2022/08/04 00:12:09;;;;;;;3.60;1.65;;;29.60;52.40;;;;;;10904166;32;20024;-71
2022/08/04 00:18:18;;;;;;;2.00;1.40;;;29.60;52.40;;;;;;10903976;32;20369;-71
2022/08/04 00:24:21;;;;;;;3.83;1.35;;;29.50;52.40;;;;;;10903996;32;20069;-71
2022/08/04 00:30:24;;;;;;;1.37;1.12;;;29.40;52.40;;;;;;10903702;32;20023;-71
2022/08/04 00:36:27;;;;;;;4.22;1.45;;;29.40;52.50;;;;;;10903788;32;20023;-71
2022/08/04 00:42:53;;;;;;;1.65;1.17;;;29.30;52.60;;;;;;10903540;32;20058;-71
2022/08/04 00:49:00;;;;;;;1.23;0.90;;;29.30;52.60;;;;;;10903620;32;20315;-71
2022/08/04 00:55:31;;;;;;;1.55;1.30;;;29.30;52.80;;;;;;10903410;32;20023;-72
2022/08/04 01:01:42;;;;;;;0.75;0.65;;;29.40;52.70;;;;;;10905179;32;20031;-71
2022/08/04 01:07:48;;;;;;;3.65;1.17;;;29.30;52.80;;;;;;10896634;32;20051;-71
2022/08/04 01:14:25;;;;;;;4.43;1.73;;;29.20;52.90;;;;;;10909441;32;20035;-71
2022/08/04 01:20:33;;;;;;;1.60;1.17;;;29.10;53.00;;;;;;10909460;32;20034;-71
2022/08/04 01:26:41;;;;;;;1.75;1.30;;;29.10;53.10;;;;;;10909088;32;20469;-71
2022/08/04 01:32:52;;;;;;;4.60;2.10;;;29.10;53.50;;;;;;10909082;32;20062;-71
2022/08/04 01:38:55;;;;;;;2.55;1.45;;;28.90;54.20;;;;;;10908698;32;20023;-71
2022/08/04 01:44:59;;;;;;;1.92;1.50;;;28.80;54.30;;;;;;10908543;32;20054;-71
2022/08/04 01:51:07;;;;;;;1.50;1.00;;;28.90;54.30;;;;;;10908374;32;20042;-71
2022/08/04 01:57:10;;;;;;;2.37;1.25;;;28.80;54.40;;;;;;10906528;32;20031;-71
2022/08/04 02:03:13;;;;;;;2.53;1.17;;;28.80;54.80;;;;;;10907926;32;20180;-71
2022/08/04 02:09:35;;;;;;;3.25;2.30;;;28.60;54.80;;;;;;10907316;32;20357;-70
2022/08/04 02:15:54;;;;;;;3.05;2.05;;;28.60;55.60;;;;;;10907639;32;20019;-70
2022/08/04 02:22:08;;;;;;;2.15;1.25;;;28.60;55.60;;;;;;10907235;32;20035;-71
2022/08/04 02:28:13;;;;;;;3.45;1.80;;;28.40;55.60;;;;;;10906968;32;20026;-71
2022/08/04 02:34:26;;;;;;;4.10;2.05;;;28.50;55.70;;;;;;10906870;32;20051;-72
2022/08/04 02:40:29;;;;;;;3.85;2.10;;;28.50;55.70;;;;;;10906675;32;20046;-72
2022/08/04 02:46:33;;;;;;;2.70;1.77;;;28.50;55.70;;;;;;10905893;32;20049;-72
2022/08/04 02:52:37;;;;;;;1.40;1.30;;;28.50;55.80;;;;;;10905851;32;20093;-72
2022/08/04 02:58:45;;;;;;;2.40;1.58;;;28.40;55.70;;;;;;10905870;32;20031;-72
2022/08/04 03:04:56;;;;;;;4.00;1.77;;;28.40;56.00;;;;;;10905738;32;20340;-72
2022/08/04 03:11:13;;;;;;;2.12;1.58;;;28.40;55.90;;;;;;10906615;32;20308;-72
2022/08/04 03:17:50;;;;;;;1.67;1.50;;;28.30;55.80;;;;;;10905601;32;20055;-72
2022/08/04 03:24:29;;;;;;;1.65;1.12;;;28.20;56.00;;;;;;10753612;33;20039;-72
2022/08/04 03:30:56;;;;;;;1.48;1.02;;;28.20;56.00;;;;;;10753108;33;20409;-72
2022/08/04 03:37:23;;;;;;;2.87;1.95;;;28.10;56.10;;;;;;10753002;33;20348;-72
2022/08/04 03:44:33;;;;;;;3.47;1.90;;;28.20;56.20;;;;;;10752904;33;20066;-72
2022/08/04 03:58:02;;;;;;;1.33;1.20;;;28.00;56.40;;;;;;10556007;33;20056;-72
2022/08/04 04:04:39;;;;;;;3.15;1.75;;;28.00;56.40;;;;;;10609095;33;20065;-72
2022/08/04 04:10:56;;;;;;;3.10;1.80;;;28.00;56.40;;;;;;10608494;33;20030;-72
2022/08/04 04:17:23;;;;;;;3.25;1.50;;;28.00;56.40;;;;;;10608845;33;20147;-71
2022/08/04 04:23:45;;;;;;;2.25;1.62;;;28.00;56.50;;;;;;10662393;33;20064;-71
2022/08/04 04:30:00;;;;;;;2.85;1.80;;;27.90;56.70;;;;;;10753721;27;20066;-71
2022/08/04 04:36:42;;;;;;;2.53;1.52;;;27.90;56.70;;;;;;10871518;32;20031;-71
2022/08/04 04:43:15;;;;;;;1.55;1.33;;;27.90;56.70;;;;;;10873412;32;20032;-71
2022/08/04 04:49:36;;;;;;;2.00;1.70;;;27.80;56.60;;;;;;10873200;32;20011;-71
2022/08/04 04:55:55;;;;;;;2.08;1.70;;;27.80;56.90;;;;;;10868709;32;20036;-71
2022/08/04 05:02:02;;;;;;;2.45;1.70;;;27.80;57.00;;;;;;10872751;32;20020;-71
2022/08/04 05:08:05;;;;;;;2.28;1.73;;;27.90;57.00;;;;;;10872613;32;20085;-71
2022/08/04 05:14:52;;;;;;;3.40;2.35;;;27.90;56.70;;;;;;10872422;32;20359;-71
2022/08/04 05:21:17;;;;;;;1.80;1.65;;;28.00;56.90;;;;;;10757204;33;20358;-71
2022/08/04 05:27:35;;;;;;;3.45;2.08;;;28.00;56.90;;;;;;10685667;33;20059;-71
2022/08/04 05:33:40;;;;;;;1.90;0.93;;;28.10;56.70;;;;;;10684694;33;20052;-71
2022/08/04 05:40:04;;;;;;;2.47;1.75;;;28.00;56.60;;;;;;10682279;33;20033;-71
2022/08/04 05:46:08;;;;;;;4.45;1.83;;;28.00;56.50;;;;;;10683574;33;20300;-71
2022/08/04 05:52:12;;;;;;;3.53;1.83;;;28.10;56.40;;;;;;10684980;33;20401;-71
2022/08/04 05:58:16;;;;;;;1.67;1.15;;;28.20;56.20;;;;;;10747378;33;20040;-71
2022/08/04 06:04:20;;;;;;;3.22;1.62;;;28.30;56.10;;;;;;10818923;32;20388;-71
2022/08/04 06:10:45;;;;;;;1.98;1.35;;;28.30;55.90;;;;;;10833380;32;20032;-71
2022/08/04 06:17:30;;;;;;;1.17;0.77;;;28.50;55.60;;;;;;10833172;32;20025;-72
2022/08/04 06:23:38;;;;;;;2.85;1.35;;;28.70;55.30;;;;;;10832816;32;20036;-72
2022/08/04 06:29:41;;;;;;;1.15;1.00;;;28.90;55.10;;;;;;10832681;32;20028;-72
2022/08/04 06:35:48;;;;;;;1.67;1.17;;;29.00;54.80;;;;;;10831416;32;20043;-72
2022/08/04 06:41:57;;;;;;;4.25;1.10;;;29.30;54.50;;;;;;10832216;32;20112;-72
2022/08/04 06:48:05;;;;;;;2.45;1.60;;;29.30;54.40;;;;;;10832010;32;20020;-72
2022/08/04 06:54:07;;;;;;;7.68;1.12;;;29.40;54.60;;;;;;10831698;32;20016;-72
2022/08/04 07:00:13;;;;;;;2.20;1.17;;;29.50;54.40;;;;;;10831454;32;20020;-72
2022/08/04 07:06:15;;;;;;;3.17;1.30;;;29.60;54.20;;;;;;10831299;32;20059;-72
2022/08/04 07:12:21;;;;;;;1.10;0.75;;;29.70;54.10;;;;;;10830344;32;20019;-71
2022/08/04 07:18:39;;;;;;;2.22;1.15;;;29.80;54.00;;;;;;10836459;32;20114;-72
2022/08/04 07:24:41;;;;;;;1.85;1.00;;;29.80;53.70;;;;;;10867980;32;20012;-72
2022/08/04 07:30:44;;;;;;;3.33;1.12;;;29.80;53.40;;;;;;10867578;32;20024;-71
2022/08/04 07:36:56;;;;;;;3.67;1.40;;;29.90;53.20;;;;;;10867480;32;20061;-72
2022/08/04 07:42:59;;;;;;;2.20;1.55;;;30.00;53.00;;;;;;10867241;32;20050;-72
2022/08/04 07:49:02;;;;;;;2.42;1.40;;;30.20;52.80;;;;;;10867266;32;20186;-72
2022/08/04 07:55:05;;;;;;;3.25;1.12;;;30.30;52.40;;;;;;10867238;32;20024;-72
2022/08/04 08:01:09;;;;;;;1.17;0.85;;;30.40;52.30;;;;;;10867027;32;20038;-72
2022/08/04 08:07:11;;;;;;;3.70;0.70;;;30.60;52.00;;;;;;10867225;32;20042;-72
2022/08/04 08:13:15;;;;;;;1.65;1.30;;;30.60;51.90;;;;;;10874330;32;20028;-72
2022/08/04 08:19:17;;;;;;;2.17;1.45;;;30.80;51.50;;;;;;10874186;32;20019;-72
2022/08/04 08:25:19;;;;;;;1.00;0.73;;;30.90;51.30;;;;;;10874171;32;20094;-71
2022/08/04 08:31:21;;;;;;;2.17;1.10;;;30.90;51.00;;;;;;10873695;32;20042;-73
2022/08/04 08:37:36;;;;;;;1.83;1.00;;;31.10;50.50;;;;;;10873437;32;20031;-72
2022/08/04 08:44:01;;;;;;;3.53;1.70;;;31.10;50.00;;;;;;10873335;32;20028;-72
2022/08/04 08:50:17;;;;;;;2.08;1.30;;;31.30;49.40;;;;;;10873208;32;20051;-72
2022/08/04 08:56:47;;;;;;;2.25;1.25;;;31.30;48.80;;;;;;10872870;32;20027;-72
2022/08/04 09:03:10;;;;;;;2.53;1.30;;;31.40;48.30;;;;;;10872718;32;20032;-71
2022/08/04 09:09:12;;;;;;;1.12;1.02;;;31.60;48.00;;;;;;10872484;32;20050;-72
2022/08/04 09:15:46;;;;;;;3.65;1.42;;;31.70;47.30;;;;;;10872370;32;20054;-72
2022/08/04 09:22:03;;;;;;;2.60;0.95;;;31.80;47.00;;;;;;10871197;32;20442;-72
2022/08/04 09:28:26;;;;;;;1.17;1.07;;;32.10;46.70;;;;;;10871860;32;20106;-72
2022/08/04 09:34:50;;;;;;;0.75;0.75;;;32.30;46.00;;;;;;10871769;32;20024;-72
2022/08/04 09:41:04;;;;;;;2.87;1.40;;;32.40;45.70;;;;;;10871427;32;20050;-74
2022/08/04 09:47:17;;;;;;;2.62;1.58;;;32.50;44.30;;;;;;10871364;32;20020;-71
2022/08/04 09:53:50;;;;;;;2.35;1.30;;;32.50;44.30;;;;;;10870910;32;20030;-71
2022/08/04 09:59:57;;;;;;;2.22;1.20;;;32.70;44.30;;;;;;10869470;32;20020;-71
2022/08/04 10:06:19;;;;;;;2.92;1.65;;;32.90;43.90;;;;;;10870570;32;20051;-72
2022/08/04 10:12:24;;;;;;;4.43;0.93;;;33.00;42.80;;;;;;10870401;32;20050;-72
2022/08/04 10:19:16;;;;;;;2.70;1.55;;;33.10;42.30;;;;;;10870229;32;20404;-72
2022/08/04 10:25:49;;;;;;;1.70;1.23;;;33.10;41.20;;;;;;10870081;32;20213;-72
2022/08/04 10:32:03;;;;;;;1.65;1.20;;;33.30;41.00;;;;;;10869257;32;20042;-72
2022/08/04 10:38:24;;;;;;;1.42;0.93;;;33.40;40.70;;;;;;10869486;32;20063;-72
2022/08/04 10:44:58;;;;;;;4.00;1.85;;;33.70;40.50;;;;;;10869391;32;20042;-72
2022/08/04 10:51:22;;;;;;;1.77;1.30;;;33.90;40.20;;;;;;10868164;32;20032;-73
2022/08/04 10:57:47;;;;;;;1.35;1.10;;;34.10;40.00;;;;;;10868712;32;20020;-72
2022/08/04 11:04:25;;;;;;;2.45;1.20;;;34.30;39.60;;;;;;10862752;32;20028;-72
2022/08/04 11:10:38;;;;;;;1.65;1.27;;;34.60;39.00;;;;;;10718171;33;20036;-71
2022/08/04 11:16:54;;;;;;;3.95;1.62;;;34.90;38.60;;;;;;10705271;33;20033;-71
2022/08/04 11:23:09;;;;;;;1.77;1.42;;;35.10;38.10;;;;;;10717182;33;20445;-72
2022/08/04 11:29:19;;;;;;;0.82;0.75;;;35.30;37.50;;;;;;10330682;33;12083550;-71
2022/08/04 11:35:34;;;;;;;1.73;1.20;;;35.50;37.10;;;;;;10641835;33;20037;-71
2022/08/04 11:41:52;;;;;;;1.95;1.27;;;35.90;37.00;;;;;;10645474;33;20087;-72
2022/08/04 11:48:03;;;;;;;2.05;1.48;;;36.20;36.50;;;;;;10740107;33;20044;-72
2022/08/04 11:54:06;;;;;;;2.97;1.12;;;36.10;36.00;;;;;;10774545;32;20090;-70
2022/08/04 12:00:12;;;;;;;1.98;1.30;;;36.10;37.10;;;;;;10867021;32;20020;-71
2022/08/04 12:06:35;;;;;;;;;;;36.30;36.40;;;;;;10867276;32;20019;-72
2022/08/04 12:13:40;;;;;;;2.45;1.27;;;36.50;36.00;;;;;;10866801;32;20213;-72
2022/08/04 12:19:49;;;;;;;1.30;0.85;;;36.70;35.40;;;;;;10865409;32;20028;-72
2022/08/04 12:26:38;;;;;;;1.20;1.10;;;36.70;34.90;;;;;;10866637;32;20023;-72
2022/08/04 12:32:47;;;;;;;1.17;1.02;;;36.80;34.70;;;;;;10867560;27;20024;-71
2022/08/04 12:39:10;;;;;;;3.53;1.60;;;36.90;34.20;;;;;;10866284;32;20031;-71
2022/08/04 12:45:13;;;;;;;3.05;1.08;;;36.80;34.00;;;;;;10861919;32;20023;-72
2022/08/04 12:51:17;;;;;;;1.55;1.30;;;36.70;34.40;;;;;;10865947;32;20023;-71
2022/08/04 12:57:23;;;;;;;4.12;1.33;;;36.70;33.90;;;;;;10857882;32;20028;-71
2022/08/04 13:03:36;;;;;;;1.20;1.10;;;36.50;33.70;;;;;;10872757;32;20034;-70
2022/08/04 13:09:52;;;;;;;1.48;1.00;;;36.50;33.80;;;;;;10873763;32;20028;-72
2022/08/04 13:16:09;;;;;;;1.35;1.15;;;36.40;33.80;;;;;;10872438;32;20019;-71
2022/08/04 13:22:15;;;;;;;2.85;1.60;;;36.50;33.50;;;;;;10868007;32;20032;-72
2022/08/04 13:28:24;;;;;;;0.80;0.75;;;36.40;33.70;;;;;;10871958;32;20074;-72
2022/08/04 13:34:28;;;;;;;2.10;1.42;;;36.60;33.80;;;;;;10871625;32;20066;-70
2022/08/04 13:40:30;;;;;;;1.95;1.20;;;36.70;33.70;;;;;;10871530;32;20038;-71
2022/08/04 13:46:43;;;;;;;1.42;1.08;;;36.70;33.90;;;;;;10871272;32;20050;-72
2022/08/04 13:52:46;;;;;;;1.12;1.02;;;36.60;34.10;;;;;;10871096;32;20045;-70
2022/08/04 13:58:55;;;;;;;3.65;1.23;;;36.60;35.00;;;;;;10870894;32;20024;-72
2022/08/04 14:05:22;;;;;;;2.80;1.80;;;36.60;34.50;;;;;;10870083;32;20078;-72
2022/08/04 14:11:37;;;;;;;1.40;1.15;;;36.80;34.00;;;;;;10870088;32;20055;-72
2022/08/04 14:17:39;;;;;;;1.35;1.00;;;36.80;34.10;;;;;;10852867;32;20015;-73
2022/08/04 14:24:07;;;;;;;1.55;0.90;;;36.80;33.80;;;;;;10854962;32;20028;-73
2022/08/04 14:30:34;;;;;;;1.45;1.20;;;36.70;33.50;;;;;;10869892;32;20094;-73
2022/08/04 14:36:54;;;;;;;1.20;0.93;;;36.80;33.60;;;;;;10870059;32;20032;-73
2022/08/04 14:43:10;;;;;;;3.10;1.45;;;36.90;34.30;;;;;;10869306;32;20042;-68
2022/08/04 14:49:12;;;;;;;4.57;1.97;;;36.80;36.30;;;;;;10869030;32;20324;-72
2022/08/04 14:55:16;;;;;;;1.90;1.48;;;36.60;37.20;;;;;;10868012;32;20023;-73
2022/08/04 15:01:20;;;;;;;1.87;1.33;;;36.40;38.20;;;;;;10868585;32;20024;-71
2022/08/04 15:07:22;;;;;;;1.73;0.93;;;36.40;38.00;;;;;;10868587;32;20032;-69
2022/08/04 15:13:25;;;;;;;4.40;1.48;;;36.30;38.80;;;;;;10867806;32;20411;-71
2022/08/04 15:20:18;;;;;;;2.72;1.08;;;36.40;38.10;;;;;;10867870;32;20024;-70
2022/08/04 15:26:51;;;;;;;2.40;1.33;;;36.40;38.90;;;;;;10716339;33;20025;-71
2022/08/04 15:32:58;;;;;;;1.17;1.00;;;36.40;38.40;;;;;;10681510;33;20104;-70
2022/08/04 15:40:09;;;;;;;2.37;1.08;;;36.60;37.90;;;;;;10680911;33;20021;-72
2022/08/04 15:46:11;;;;;;;1.60;1.20;;;36.70;37.50;;;;;;10681319;33;20056;-72
2022/08/04 15:52:16;;;;;;;2.15;1.12;;;36.80;37.30;;;;;;10680742;33;20339;-71
2022/08/04 15:58:20;;;;;;;3.37;1.33;;;36.80;37.30;;;;;;10698285;33;20032;-71
2022/08/04 16:04:24;;;;;;;0.85;0.85;;;36.70;37.80;;;;;;10751014;33;20017;-72
2022/08/04 16:10:29;;;;;;;3.78;1.67;;;36.60;38.00;;;;;;10868429;32;20028;-70
2022/08/04 16:16:43;;;;;;;3.15;1.83;;;36.60;38.80;;;;;;10867164;32;20050;-71
2022/08/04 16:22:50;;;;;;;4.32;1.52;;;36.40;38.90;;;;;;10866607;32;20027;-71
2022/08/04 16:28:52;;;;;;;1.45;1.02;;;36.40;39.30;;;;;;10867539;32;20031;-72
2022/08/04 16:35:03;;;;;;;9.55;1.70;;;36.40;39.20;;;;;;10873216;32;20032;-71
2022/08/04 16:41:05;;;;;;;6.60;1.60;;;36.40;39.30;;;;;;10873249;32;20027;-69
2022/08/04 16:47:47;;;;;;;1.20;1.05;;;36.40;39.10;;;;;;10872892;32;20050;-69
2022/08/04 16:54:09;;;;;;;2.40;1.48;;;36.40;38.90;;;;;;10800713;32;20020;-71
2022/08/04 17:00:12;;;;;;;1.55;0.85;;;36.40;39.20;;;;;;10871356;32;20047;-69
2022/08/04 17:06:14;;;;;;;3.80;1.45;;;36.30;39.30;;;;;;10871563;32;20047;-70
2022/08/04 17:12:17;;;;;;;1.65;1.42;;;36.30;39.30;;;;;;10859029;32;20451;-70
2022/08/04 17:18:24;;;;;;;1.83;1.00;;;36.30;39.30;;;;;;10871641;32;20023;-70
2022/08/04 17:24:26;;;;;;;2.20;1.25;;;36.30;39.10;;;;;;10871393;32;20032;-70
2022/08/04 17:30:28;;;;;;;2.08;1.27;;;36.40;38.80;;;;;;10866960;32;20035;-70
2022/08/04 17:36:31;;;;;;;2.25;0.90;;;36.30;38.50;;;;;;10870909;32;20035;-70
2022/08/04 17:42:37;;;;;;;1.55;0.98;;;36.90;37.90;;;;;;10870303;32;20043;-70
2022/08/04 17:48:41;;;;;;;3.05;0.70;;;37.60;37.10;;;;;;10870276;32;20035;-70
2022/08/04 17:55:05;;;;;;;1.48;0.82;;;37.90;36.70;;;;;;10870264;32;20078;-70
2022/08/04 18:01:10;;;;;;;1.10;0.80;;;38.70;35.80;;;;;;10870408;32;20063;-70
2022/08/04 18:07:17;;;;;;;1.00;0.70;;;38.90;35.40;;;;;;10867361;32;20053;-70
2022/08/04 18:13:19;;;;;;;1.50;0.73;;;38.90;35.30;;;;;;10870072;32;20035;-70
2022/08/04 18:19:21;;;;;;;1.73;1.00;;;38.30;36.00;;;;;;10870101;32;20028;-70
2022/08/04 18:25:23;;;;;;;1.25;0.90;;;37.20;37.40;;;;;;10869635;32;20058;-70
2022/08/04 18:31:28;;;;;;;0.98;0.70;;;36.30;38.60;;;;;;10868855;32;20019;-70
2022/08/04 18:37:31;;;;;;;1.45;0.93;;;35.70;39.40;;;;;;10832239;32;20031;-70
2022/08/04 18:43:33;;;;;;;1.25;1.00;;;35.30;39.80;;;;;;10832201;32;20032;-70
2022/08/04 18:49:35;;;;;;;1.10;0.77;;;34.90;40.20;;;;;;10832046;32;20051;-71
2022/08/04 18:55:37;;;;;;;2.00;1.08;;;34.70;40.60;;;;;;10832560;32;20051;-70
2022/08/04 19:01:39;;;;;;;0.90;0.68;;;34.50;40.80;;;;;;10831447;32;20046;-70
2022/08/04 19:07:41;;;;;;;2.17;1.27;;;34.30;41.20;;;;;;10831183;32;20020;-70
2022/08/04 19:13:44;;;;;;;1.23;0.90;;;34.10;41.80;;;;;;10830905;32;20024;-70
2022/08/04 19:19:46;;;;;;;10.18;1.10;;;34.00;42.10;;;;;;10830702;32;20385;-72
2022/08/04 19:25:49;;;;;;;4.22;0.88;;;33.80;42.30;;;;;;10830755;32;20070;-70
2022/08/04 19:31:51;;;;;;;8.63;1.62;;;33.80;42.50;;;;;;10830322;32;20020;-71
2022/08/04 19:38:10;;;;;;;7.53;0.82;;;33.60;42.60;;;;;;10825319;33;20051;-70
2022/08/04 19:44:12;;;;;;;2.25;0.90;;;33.50;42.90;;;;;;10825840;33;20040;-71
2022/08/04 19:50:14;;;;;;;1.48;1.00;;;33.40;43.20;;;;;;10830032;32;20031;-70
2022/08/04 19:56:16;;;;;;;0.60;0.50;;;33.30;43.60;;;;;;10825729;33;20067;-71
2022/08/04 20:02:18;;;;;;;1.42;1.00;;;33.20;43.80;;;;;;10829920;32;20024;-71
2022/08/04 20:08:22;;;;;;;2.35;1.00;;;33.10;44.00;;;;;;10829182;33;20008;-71
2022/08/04 20:14:27;;;;;;;2.87;1.55;;;32.90;44.50;;;;;;10829884;33;20352;-70
2022/08/04 20:20:30;;;;;;;1.17;0.90;;;32.80;45.10;;;;;;10829688;33;20040;-71
2022/08/04 20:26:32;;;;;;;2.25;1.52;;;32.80;45.30;;;;;;10829730;33;20020;-71
2022/08/04 20:32:34;;;;;;;1.33;1.00;;;32.70;45.70;;;;;;10830166;27;20405;-70
2022/08/04 20:38:36;;;;;;;2.22;1.52;;;32.50;46.50;;;;;;10829221;33;20046;-71
2022/08/04 20:44:38;;;;;;;2.20;1.52;;;32.40;47.00;;;;;;10829401;33;20055;-70
2022/08/04 20:50:47;;;;;;;2.00;1.48;;;32.40;47.10;;;;;;10826044;32;20023;-70
2022/08/04 20:56:50;;;;;;;2.03;1.20;;;32.30;47.60;;;;;;10829138;33;20070;-71
2022/08/04 21:02:59;;;;;;;1.73;0.90;;;32.00;48.60;;;;;;10829135;33;20116;-71
2022/08/04 21:09:01;;;;;;;3.20;1.60;;;31.80;49.90;;;;;;10829042;33;20025;-71
2022/08/04 21:15:03;;;;;;;2.17;1.25;;;31.70;49.70;;;;;;10829935;32;20054;-71
2022/08/04 21:21:05;;;;;;;2.62;1.10;;;31.70;49.50;;;;;;10835200;32;20028;-71
2022/08/04 21:27:08;;;;;;;3.67;1.20;;;31.70;49.70;;;;;;10835209;32;20016;-71
2022/08/04 21:33:10;;;;;;;2.00;1.37;;;31.60;49.60;;;;;;10834896;32;20095;-71
2022/08/04 21:39:12;;;;;;;1.40;0.90;;;31.60;49.60;;;;;;10834615;32;20314;-71
2022/08/04 21:45:22;;;;;;;3.50;1.33;;;31.50;49.50;;;;;;10834534;32;20047;-72
2022/08/04 21:51:26;;;;;;;1.10;0.82;;;31.40;49.60;;;;;;10834382;32;20015;-72
2022/08/04 21:57:28;;;;;;;0.88;0.68;;;31.30;49.70;;;;;;10834120;32;20051;-71
2022/08/04 22:03:30;;;;;;;3.30;1.33;;;31.30;49.80;;;;;;10833993;32;20034;-71
2022/08/04 22:09:32;;;;;;;1.17;1.05;;;31.20;49.90;;;;;;10831945;32;20036;-71
2022/08/04 22:15:35;;;;;;;1.67;1.27;;;31.10;50.00;;;;;;10833446;32;20016;-71
2022/08/04 22:21:37;;;;;;;1.80;1.37;;;31.10;50.00;;;;;;10833263;32;20020;-71
2022/08/04 22:34:27;;;;;;;1.25;1.00;;;31.00;50.20;;;;;;10832769;32;20050;-72
2022/08/04 22:48:05;;;;;;;1.42;0.75;;;31.00;50.30;;;;;;10833535;32;20047;-71
2022/08/04 22:54:07;;;;;;;1.75;1.20;;;30.90;50.50;;;;;;10832039;32;20054;-71
2022/08/04 23:00:11;;;;;;;3.00;1.92;;;30.90;50.60;;;;;;10831769;32;20036;-71
2022/08/04 23:06:13;;;;;;;1.80;1.10;;;30.80;50.80;;;;;;10831631;32;20023;-71
2022/08/04 23:12:16;;;;;;;1.95;1.17;;;30.80;50.90;;;;;;10831277;32;20066;-71
2022/08/04 23:18:18;;;;;;;2.25;1.25;;;30.70;51.00;;;;;;10831264;32;20399;-71
2022/08/04 23:24:20;;;;;;;2.15;1.15;;;30.60;51.30;;;;;;10831103;32;20420;-71
2022/08/04 23:30:24;;;;;;;3.90;0.98;;;30.60;51.40;;;;;;10830816;32;20046;-71
2022/08/04 23:36:26;;;;;;;1.50;1.00;;;30.50;51.70;;;;;;10830594;32;20356;-71
2022/08/04 23:42:28;;;;;;;10.98;2.10;;;30.50;51.80;;;;;;10829987;32;20459;-71
2022/08/04 23:48:30;;;;;;;1.83;1.40;;;30.30;52.00;;;;;;10830499;32;20020;-71
2022/08/04 23:54:32;;;;;;;3.03;1.55;;;30.30;52.10;;;;;;10830206;32;20028;-71
